Sea Malinhead, Ireland
Current Conditions -  °F | °C
As of 7:30 AM on Thursday 23 Oct 2014 (Local Time) from EIDL Reporting Station
Overcast Overcast  
Wind Chill: 55°   Ceiling: 800
Heat Index: 55°   Visibility: 6mi
Dew Point: 54°   Wind: 16mph
Humidity: 94%   Direction: 220°SW
Pressure: 29.83"   Gusts: NA
Location:  55.5°N, 7.5°W
Report Text: EIDL 230630Z 22014KT 9999 BKN008 OVC015 13/12 Q1010
Loading
Personal Weather Stations






























Interactive Weather Map
Tropical Storm Tracking
New forecast layout! Learn more

10-Day Weather Forecast

Advertisements
Track Severe Weather on mobile